sensor_id;sensor_type;location;lat;lon;timestamp;pressure;altitude;pressure_sealevel;temperature;humidity
5755;BME280;2902;42.130;24.732;2023-06-10T00:01:23;98921.91;;;20.58;86.41
5755;BME280;2902;42.130;24.732;2023-06-10T00:03:50;98921.91;;;20.53;86.26
5755;BME280;2902;42.130;24.732;2023-06-10T00:06:18;98921.66;;;20.50;87.13
5755;BME280;2902;42.130;24.732;2023-06-10T00:08:47;98929.22;;;20.48;86.50
5755;BME280;2902;42.130;24.732;2023-06-10T00:11:14;98925.44;;;20.49;86.65
5755;BME280;2902;42.130;24.732;2023-06-10T00:13:41;98919.22;;;20.53;86.27
5755;BME280;2902;42.130;24.732;2023-06-10T00:16:08;98924.38;;;20.50;85.90
5755;BME280;2902;42.130;24.732;2023-06-10T00:18:34;98925.13;;;20.55;85.66
5755;BME280;2902;42.130;24.732;2023-06-10T00:21:02;98920.56;;;20.56;85.59
5755;BME280;2902;42.130;24.732;2023-06-10T00:23:30;98921.63;;;20.60;86.73
5755;BME280;2902;42.130;24.732;2023-06-10T00:25:59;98920.03;;;20.59;85.19
5755;BME280;2902;42.130;24.732;2023-06-10T00:28:26;98922.72;;;20.54;86.08
5755;BME280;2902;42.130;24.732;2023-06-10T00:30:52;98926.22;;;20.54;85.63
5755;BME280;2902;42.130;24.732;2023-06-10T00:33:19;98923.53;;;20.54;85.53
5755;BME280;2902;42.130;24.732;2023-06-10T00:35:46;98923.25;;;20.61;85.84
5755;BME280;2902;42.130;24.732;2023-06-10T00:38:13;98924.00;;;20.72;85.04
5755;BME280;2902;42.130;24.732;2023-06-10T00:40:40;98915.09;;;20.76;84.34
5755;BME280;2902;42.130;24.732;2023-06-10T00:43:09;98924.28;;;20.75;84.08
5755;BME280;2902;42.130;24.732;2023-06-10T00:45:35;98919.97;;;20.69;84.21
5755;BME280;2902;42.130;24.732;2023-06-10T00:48:03;98917.88;;;20.51;84.76
5755;BME280;2902;42.130;24.732;2023-06-10T00:50:30;98914.38;;;20.45;85.87
5755;BME280;2902;42.130;24.732;2023-06-10T00:52:58;98922.50;;;20.40;85.64
5755;BME280;2902;42.130;24.732;2023-06-10T00:55:26;98915.75;;;20.38;86.03
5755;BME280;2902;42.130;24.732;2023-06-10T00:57:53;98912.50;;;20.41;86.51
5755;BME280;2902;42.130;24.732;2023-06-10T01:00:21;98912.78;;;20.44;85.88
5755;BME280;2902;42.130;24.732;2023-06-10T01:02:48;98910.88;;;20.50;85.77
5755;BME280;2902;42.130;24.732;2023-06-10T01:05:17;98914.06;;;20.62;85.18
5755;BME280;2902;42.130;24.732;2023-06-10T01:07:49;98919.97;;;20.69;84.54
5755;BME280;2902;42.130;24.732;2023-06-10T01:10:20;98922.41;;;20.71;84.46
5755;BME280;2902;42.130;24.732;2023-06-10T01:12:55;98930.78;;;20.69;84.90
5755;BME280;2902;42.130;24.732;2023-06-10T01:15:26;98925.66;;;20.67;84.06
5755;BME280;2902;42.130;24.732;2023-06-10T01:17:54;98920.81;;;20.65;84.60
5755;BME280;2902;42.130;24.732;2023-06-10T01:20:22;98929.69;;;20.75;84.50
5755;BME280;2902;42.130;24.732;2023-06-10T01:22:50;98938.56;;;20.81;83.88
5755;BME280;2902;42.130;24.732;2023-06-10T01:25:19;98929.63;;;20.85;83.45
5755;BME280;2902;42.130;24.732;2023-06-10T01:27:55;98934.50;;;20.88;83.26
5755;BME280;2902;42.130;24.732;2023-06-10T01:30:27;98935.84;;;20.91;82.97
5755;BME280;2902;42.130;24.732;2023-06-10T01:32:59;98939.38;;;20.91;83.43
5755;BME280;2902;42.130;24.732;2023-06-10T01:35:29;98938.03;;;20.94;83.03
5755;BME280;2902;42.130;24.732;2023-06-10T01:37:58;98932.88;;;20.87;82.38
5755;BME280;2902;42.130;24.732;2023-06-10T01:40:28;98942.59;;;20.88;82.40
5755;BME280;2902;42.130;24.732;2023-06-10T01:42:56;98920.22;;;20.73;83.37
5755;BME280;2902;42.130;24.732;2023-06-10T01:45:22;98936.69;;;20.76;83.46
5755;BME280;2902;42.130;24.732;2023-06-10T01:47:49;98929.41;;;20.72;83.58
5755;BME280;2902;42.130;24.732;2023-06-10T01:50:16;98927.25;;;20.74;83.31
5755;BME280;2902;42.130;24.732;2023-06-10T01:52:42;98933.19;;;20.76;83.48
5755;BME280;2902;42.130;24.732;2023-06-10T01:55:10;98932.94;;;20.72;83.43
5755;BME280;2902;42.130;24.732;2023-06-10T01:57:37;98932.94;;;20.67;84.05
5755;BME280;2902;42.130;24.732;2023-06-10T02:00:05;98936.19;;;20.64;84.27
5755;BME280;2902;42.130;24.732;2023-06-10T02:02:33;98940.50;;;20.65;84.02
5755;BME280;2902;42.130;24.732;2023-06-10T02:04:59;98931.88;;;20.68;83.92
5755;BME280;2902;42.130;24.732;2023-06-10T02:07:27;98935.09;;;20.70;83.45
5755;BME280;2902;42.130;24.732;2023-06-10T02:09:53;98928.63;;;20.66;83.48
5755;BME280;2902;42.130;24.732;2023-06-10T02:12:21;98942.13;;;20.71;83.85
5755;BME280;2902;42.130;24.732;2023-06-10T02:14:48;98938.84;;;20.74;83.73
5755;BME280;2902;42.130;24.732;2023-06-10T02:17:16;98948.28;;;20.77;83.09
5755;BME280;2902;42.130;24.732;2023-06-10T02:19:42;98938.84;;;20.74;83.49
5755;BME280;2902;42.130;24.732;2023-06-10T02:22:09;98940.75;;;20.74;83.47
5755;BME280;2902;42.130;24.732;2023-06-10T02:24:36;98942.94;;;20.67;83.19
5755;BME280;2902;42.130;24.732;2023-06-10T02:27:04;98928.66;;;20.56;83.79
5755;BME280;2902;42.130;24.732;2023-06-10T02:29:34;98931.88;;;20.53;84.01
5755;BME280;2902;42.130;24.732;2023-06-10T02:32:01;98935.13;;;20.55;83.77
5755;BME280;2902;42.130;24.732;2023-06-10T02:34:28;98941.38;;;20.45;84.23
5755;BME280;2902;42.130;24.732;2023-06-10T02:36:55;98934.34;;;20.44;84.87
5755;BME280;2902;42.130;24.732;2023-06-10T02:39:22;98938.91;;;20.49;84.60
5755;BME280;2902;42.130;24.732;2023-06-10T02:41:48;98948.09;;;20.53;84.15
5755;BME280;2902;42.130;24.732;2023-06-10T02:44:15;98942.69;;;20.48;84.29
5755;BME280;2902;42.130;24.732;2023-06-10T02:46:43;98943.81;;;20.42;84.90
5755;BME280;2902;42.130;24.732;2023-06-10T02:49:11;98943.25;;;20.40;84.96
5755;BME280;2902;42.130;24.732;2023-06-10T02:51:38;98938.94;;;20.44;85.18
5755;BME280;2902;42.130;24.732;2023-06-10T02:54:05;98944.06;;;20.45;84.87
5755;BME280;2902;42.130;24.732;2023-06-10T02:56:31;98944.88;;;20.51;84.88
5755;BME280;2902;42.130;24.732;2023-06-10T02:58:59;98947.53;;;20.56;84.78
5755;BME280;2902;42.130;24.732;2023-06-10T03:01:26;98952.91;;;20.61;83.52
5755;BME280;2902;42.130;24.732;2023-06-10T03:03:54;98947.78;;;20.59;84.29
5755;BME280;2902;42.130;24.732;2023-06-10T03:06:21;98951.34;;;20.55;84.38
5755;BME280;2902;42.130;24.732;2023-06-10T03:08:49;98951.34;;;20.55;83.69
5755;BME280;2902;42.130;24.732;2023-06-10T03:11:16;98959.44;;;20.55;83.94
5755;BME280;2902;42.130;24.732;2023-06-10T03:13:44;98955.13;;;20.44;83.78
5755;BME280;2902;42.130;24.732;2023-06-10T03:16:11;98967.53;;;20.40;84.56
5755;BME280;2902;42.130;24.732;2023-06-10T03:18:38;98967.00;;;20.43;84.79
5755;BME280;2902;42.130;24.732;2023-06-10T03:21:06;98958.59;;;20.54;84.24
5755;BME280;2902;42.130;24.732;2023-06-10T03:23:35;98955.63;;;20.61;83.98
5755;BME280;2902;42.130;24.732;2023-06-10T03:26:01;98966.09;;;20.73;83.77
5755;BME280;2902;42.130;24.732;2023-06-10T03:28:30;98960.69;;;20.83;83.89
5755;BME280;2902;42.130;24.732;2023-06-10T03:30:57;98961.78;;;20.92;83.33
5755;BME280;2902;42.130;24.732;2023-06-10T03:33:23;98973.88;;;20.99;82.92
5755;BME280;2902;42.130;24.732;2023-06-10T03:35:51;98963.09;;;21.04;82.31
5755;BME280;2902;42.130;24.732;2023-06-10T03:38:19;98973.31;;;21.12;82.28
5755;BME280;2902;42.130;24.732;2023-06-10T03:40:46;98967.34;;;21.20;82.07
5755;BME280;2902;42.130;24.732;2023-06-10T03:43:13;98963.53;;;21.26;81.71
5755;BME280;2902;42.130;24.732;2023-06-10T03:45:40;98964.03;;;21.33;81.39
5755;BME280;2902;42.130;24.732;2023-06-10T03:48:07;98962.97;;;21.29;80.89
5755;BME280;2902;42.130;24.732;2023-06-10T03:50:34;98975.34;;;21.35;80.83
5755;BME280;2902;42.130;24.732;2023-06-10T03:53:02;98978.63;;;21.32;81.03
5755;BME280;2902;42.130;24.732;2023-06-10T03:55:30;98973.72;;;21.39;80.92
5755;BME280;2902;42.130;24.732;2023-06-10T03:57:57;98985.03;;;21.46;80.63
5755;BME280;2902;42.130;24.732;2023-06-10T04:00:23;98975.28;;;21.50;80.40
5755;BME280;2902;42.130;24.732;2023-06-10T04:02:50;98975.78;;;21.57;79.67
5755;BME280;2902;42.130;24.732;2023-06-10T04:05:18;98975.75;;;21.62;78.57
5755;BME280;2902;42.130;24.732;2023-06-10T04:07:47;98976.28;;;21.64;78.10
5755;BME280;2902;42.130;24.732;2023-06-10T04:10:14;98967.09;;;21.70;78.29
5755;BME280;2902;42.130;24.732;2023-06-10T04:12:42;98974.88;;;21.77;78.06
5755;BME280;2902;42.130;24.732;2023-06-10T04:15:09;98972.97;;;21.82;77.88
5755;BME280;2902;42.130;24.732;2023-06-10T04:17:37;98969.41;;;21.87;77.63
5755;BME280;2902;42.130;24.732;2023-06-10T04:20:05;98975.31;;;21.94;77.82
5755;BME280;2902;42.130;24.732;2023-06-10T04:22:33;98976.13;;;21.94;77.54
5755;BME280;2902;42.130;24.732;2023-06-10T04:25:00;98973.44;;;21.89;76.87
5755;BME280;2902;42.130;24.732;2023-06-10T04:27:26;98972.19;;;21.77;77.18
5755;BME280;2902;42.130;24.732;2023-06-10T04:29:54;98970.31;;;21.67;78.54
5755;BME280;2902;42.130;24.732;2023-06-10T04:32:21;98961.94;;;21.69;78.20
5755;BME280;2902;42.130;24.732;2023-06-10T04:34:48;98962.22;;;21.67;77.83
5755;BME280;2902;42.130;24.732;2023-06-10T04:37:15;98968.16;;;21.74;78.28
5755;BME280;2902;42.130;24.732;2023-06-10T04:39:41;98966.19;;;21.85;77.47
5755;BME280;2902;42.130;24.732;2023-06-10T04:42:08;98967.72;;;21.96;76.82
5755;BME280;2902;42.130;24.732;2023-06-10T04:44:35;98963.59;;;22.03;76.44
5755;BME280;2902;42.130;24.732;2023-06-10T04:47:04;98964.38;;;22.09;75.67
5755;BME280;2902;42.130;24.732;2023-06-10T04:49:33;98964.66;;;22.07;75.89
5755;BME280;2902;42.130;24.732;2023-06-10T04:52:00;98963.28;;;22.10;76.08
5755;BME280;2902;42.130;24.732;2023-06-10T04:54:26;98959.69;;;22.19;76.12
5755;BME280;2902;42.130;24.732;2023-06-10T04:56:53;98966.03;;;22.33;75.57
5755;BME280;2902;42.130;24.732;2023-06-10T04:59:20;98962.72;;;22.41;74.34
5755;BME280;2902;42.130;24.732;2023-06-10T05:01:47;98966.41;;;22.55;74.38
5755;BME280;2902;42.130;24.732;2023-06-10T05:04:15;98969.06;;;22.60;73.80
5755;BME280;2902;42.130;24.732;2023-06-10T05:06:41;98968.66;;;22.72;73.70
5755;BME280;2902;42.130;24.732;2023-06-10T05:09:09;98968.25;;;22.83;73.81
5755;BME280;2902;42.130;24.732;2023-06-10T05:11:36;98973.59;;;22.93;73.11
5755;BME280;2902;42.130;24.732;2023-06-10T05:14:02;98970.09;;;23.11;72.37
5755;BME280;2902;42.130;24.732;2023-06-10T05:16:29;98980.22;;;23.29;72.02
5755;BME280;2902;42.130;24.732;2023-06-10T05:18:56;98971.81;;;23.86;71.20
5755;BME280;2902;42.130;24.732;2023-06-10T05:21:24;98989.16;;;24.54;68.18
5755;BME280;2902;42.130;24.732;2023-06-10T05:23:51;98984.03;;;24.98;65.81
5755;BME280;2902;42.130;24.732;2023-06-10T05:26:17;98986.81;;;25.61;63.37
5755;BME280;2902;42.130;24.732;2023-06-10T05:28:44;98982.31;;;25.79;62.62
5755;BME280;2902;42.130;24.732;2023-06-10T05:31:11;98975.25;;;25.78;62.80
5755;BME280;2902;42.130;24.732;2023-06-10T05:33:37;98974.22;;;26.01;62.98
5755;BME280;2902;42.130;24.732;2023-06-10T05:36:05;98979.53;;;26.50;60.80
5755;BME280;2902;42.130;24.732;2023-06-10T05:38:33;98979.56;;;26.89;59.29
5755;BME280;2902;42.130;24.732;2023-06-10T05:40:59;98981.72;;;27.00;58.83
5755;BME280;2902;42.130;24.732;2023-06-10T05:43:26;98985.44;;;27.13;58.43
5755;BME280;2902;42.130;24.732;2023-06-10T05:45:53;98986.50;;;27.25;57.75
5755;BME280;2902;42.130;24.732;2023-06-10T05:48:19;98993.91;;;27.42;57.24
5755;BME280;2902;42.130;24.732;2023-06-10T05:50:46;98994.88;;;27.46;56.70
5755;BME280;2902;42.130;24.732;2023-06-10T05:53:13;98995.53;;;27.51;56.31
5755;BME280;2902;42.130;24.732;2023-06-10T05:55:43;98990.09;;;27.60;56.03
5755;BME280;2902;42.130;24.732;2023-06-10T05:58:10;99001.47;;;27.62;54.39
5755;BME280;2902;42.130;24.732;2023-06-10T06:00:38;98997.16;;;27.61;55.23
5755;BME280;2902;42.130;24.732;2023-06-10T06:03:06;99007.28;;;27.69;53.48
5755;BME280;2902;42.130;24.732;2023-06-10T06:05:33;99009.81;;;27.65;54.40
5755;BME280;2902;42.130;24.732;2023-06-10T06:08:01;99006.31;;;27.73;53.25
5755;BME280;2902;42.130;24.732;2023-06-10T06:10:28;99022.59;;;28.04;51.84
5755;BME280;2902;42.130;24.732;2023-06-10T06:12:56;99017.59;;;28.14;52.98
5755;BME280;2902;42.130;24.732;2023-06-10T06:15:23;99013.59;;;28.12;51.81
5755;BME280;2902;42.130;24.732;2023-06-10T06:17:49;99011.34;;;28.14;52.15
5755;BME280;2902;42.130;24.732;2023-06-10T06:20:18;99013.59;;;27.95;52.61
5755;BME280;2902;42.130;24.732;2023-06-10T06:22:44;99020.00;;;27.82;52.57
5755;BME280;2902;42.130;24.732;2023-06-10T06:25:11;99014.84;;;27.72;52.04
5755;BME280;2902;42.130;24.732;2023-06-10T06:27:38;99003.09;;;27.71;53.51
5755;BME280;2902;42.130;24.732;2023-06-10T06:30:07;99004.22;;;27.79;53.52
5755;BME280;2902;42.130;24.732;2023-06-10T06:32:34;99006.03;;;27.83;53.11
5755;BME280;2902;42.130;24.732;2023-06-10T06:35:01;99003.16;;;27.88;54.84
5755;BME280;2902;42.130;24.732;2023-06-10T06:37:27;99004.94;;;27.93;52.30
5755;BME280;2902;42.130;24.732;2023-06-10T06:39:54;98992.84;;;28.02;53.69
5755;BME280;2902;42.130;24.732;2023-06-10T06:42:21;98987.91;;;28.13;53.01
5755;BME280;2902;42.130;24.732;2023-06-10T06:44:48;98990.59;;;28.38;51.63
5755;BME280;2902;42.130;24.732;2023-06-10T06:47:16;98983.06;;;28.44;51.63
5755;BME280;2902;42.130;24.732;2023-06-10T06:49:45;98987.00;;;28.72;51.14
5755;BME280;2902;42.130;24.732;2023-06-10T06:52:12;98994.81;;;28.99;49.96
5755;BME280;2902;42.130;24.732;2023-06-10T06:54:38;98978.38;;;28.99;50.15
5755;BME280;2902;42.130;24.732;2023-06-10T06:57:06;98973.09;;;29.02;49.60
5755;BME280;2902;42.130;24.732;2023-06-10T06:59:32;98980.03;;;29.00;49.13
5755;BME280;2902;42.130;24.732;2023-06-10T07:01:59;98974.22;;;28.93;49.74
5755;BME280;2902;42.130;24.732;2023-06-10T07:04:27;98977.59;;;28.90;50.15
5755;BME280;2902;42.130;24.732;2023-06-10T07:06:54;98974.47;;;28.71;50.57
5755;BME280;2902;42.130;24.732;2023-06-10T07:09:20;98968.56;;;28.52;51.09
5755;BME280;2902;42.130;24.732;2023-06-10T07:11:47;98954.28;;;28.38;52.35
5755;BME280;2902;42.130;24.732;2023-06-10T07:14:14;98950.91;;;28.41;52.42
5755;BME280;2902;42.130;24.732;2023-06-10T07:16:41;98953.31;;;28.51;52.40
5755;BME280;2902;42.130;24.732;2023-06-10T07:19:07;98954.59;;;28.53;52.38
5755;BME280;2902;42.130;24.732;2023-06-10T07:21:36;98960.88;;;28.54;51.30
5755;BME280;2902;42.130;24.732;2023-06-10T07:24:03;98952.97;;;28.52;51.74
5755;BME280;2902;42.130;24.732;2023-06-10T07:26:31;98946.31;;;28.70;52.06
5755;BME280;2902;42.130;24.732;2023-06-10T07:28:57;98951.91;;;29.20;50.86
5755;BME280;2902;42.130;24.732;2023-06-10T07:31:24;98948.41;;;29.40;48.87
5755;BME280;2902;42.130;24.732;2023-06-10T07:33:51;98948.59;;;29.35;47.93
5755;BME280;2902;42.130;24.732;2023-06-10T07:36:18;98955.19;;;29.34;49.40
5755;BME280;2902;42.130;24.732;2023-06-10T07:38:46;98941.63;;;29.17;50.25
5755;BME280;2902;42.130;24.732;2023-06-10T07:41:12;98955.66;;;29.07;50.11
5755;BME280;2902;42.130;24.732;2023-06-10T07:43:39;98952.19;;;28.89;50.39
5755;BME280;2902;42.130;24.732;2023-06-10T07:46:07;98948.72;;;28.72;50.37
5755;BME280;2902;42.130;24.732;2023-06-10T07:48:34;98951.06;;;28.44;50.88
5755;BME280;2902;42.130;24.732;2023-06-10T07:51:00;98948.47;;;28.56;50.79
5755;BME280;2902;42.130;24.732;2023-06-10T07:53:27;98947.59;;;28.73;51.90
5755;BME280;2902;42.130;24.732;2023-06-10T07:55:55;98958.09;;;28.62;48.37
5755;BME280;2902;42.130;24.732;2023-06-10T07:58:22;98940.47;;;28.26;51.77
5755;BME280;2902;42.130;24.732;2023-06-10T08:00:48;98935.78;;;28.52;50.79
5755;BME280;2902;42.130;24.732;2023-06-10T08:03:15;98950.44;;;28.85;49.65
5755;BME280;2902;42.130;24.732;2023-06-10T08:05:43;98951.81;;;29.37;48.42
5755;BME280;2902;42.130;24.732;2023-06-10T08:08:09;98947.47;;;29.65;48.44
5755;BME280;2902;42.130;24.732;2023-06-10T08:10:36;98949.19;;;29.90;47.63
5755;BME280;2902;42.130;24.732;2023-06-10T08:13:04;98948.22;;;30.07;44.98
5755;BME280;2902;42.130;24.732;2023-06-10T08:15:31;98952.63;;;30.20;44.96
5755;BME280;2902;42.130;24.732;2023-06-10T08:17:57;98944.69;;;30.06;43.86
5755;BME280;2902;42.130;24.732;2023-06-10T08:20:24;98938.91;;;29.67;46.87
5755;BME280;2902;42.130;24.732;2023-06-10T08:22:51;98936.06;;;30.16;46.50
5755;BME280;2902;42.130;24.732;2023-06-10T08:25:18;98935.28;;;30.60;44.49
5755;BME280;2902;42.130;24.732;2023-06-10T08:27:46;98934.88;;;30.94;41.44
5755;BME280;2902;42.130;24.732;2023-06-10T08:30:15;98923.66;;;31.11;39.30
5755;BME280;2902;42.130;24.732;2023-06-10T08:32:41;98934.88;;;31.42;39.15
5755;BME280;2902;42.130;24.732;2023-06-10T08:35:08;98935.66;;;31.55;41.37
5755;BME280;2902;42.130;24.732;2023-06-10T08:37:35;98932.78;;;31.63;41.86
5755;BME280;2902;42.130;24.732;2023-06-10T08:40:02;98933.69;;;31.67;40.91
5755;BME280;2902;42.130;24.732;2023-06-10T08:42:33;98942.03;;;31.71;37.59
5755;BME280;2902;42.130;24.732;2023-06-10T08:45:01;98930.47;;;31.77;40.29
5755;BME280;2902;42.130;24.732;2023-06-10T08:47:30;98927.59;;;31.86;39.57
5755;BME280;2902;42.130;24.732;2023-06-10T08:50:02;98917.25;;;31.95;39.01
5755;BME280;2902;42.130;24.732;2023-06-10T08:52:35;98923.09;;;31.93;36.97
5755;BME280;2902;42.130;24.732;2023-06-10T08:55:04;98914.28;;;32.15;38.77
5755;BME280;2902;42.130;24.732;2023-06-10T08:57:31;98913.84;;;32.56;35.94
5755;BME280;2902;42.130;24.732;2023-06-10T08:59:58;98906.38;;;32.57;36.31
5755;BME280;2902;42.130;24.732;2023-06-10T09:02:24;98904.38;;;32.26;36.17
5755;BME280;2902;42.130;24.732;2023-06-10T09:04:53;98905.38;;;32.06;36.15
5755;BME280;2902;42.130;24.732;2023-06-10T09:07:22;98900.09;;;32.13;36.87
5755;BME280;2902;42.130;24.732;2023-06-10T09:09:50;98888.13;;;32.21;35.95
5755;BME280;2902;42.130;24.732;2023-06-10T09:12:19;98896.53;;;32.40;35.66
5755;BME280;2902;42.130;24.732;2023-06-10T09:14:45;98901.44;;;32.19;35.75
5755;BME280;2902;42.130;24.732;2023-06-10T09:17:12;98893.00;;;32.12;36.50
5755;BME280;2902;42.130;24.732;2023-06-10T09:19:40;98877.03;;;32.02;36.40
5755;BME280;2902;42.130;24.732;2023-06-10T09:22:09;98875.63;;;32.08;36.84
5755;BME280;2902;42.130;24.732;2023-06-10T09:24:36;98888.78;;;32.30;36.08
5755;BME280;2902;42.130;24.732;2023-06-10T09:27:03;98888.09;;;32.33;36.43
5755;BME280;2902;42.130;24.732;2023-06-10T09:29:31;98890.78;;;32.45;35.34
5755;BME280;2902;42.130;24.732;2023-06-10T09:31:58;98887.31;;;32.48;35.78
5755;BME280;2902;42.130;24.732;2023-06-10T09:34:25;98888.75;;;32.58;34.32
5755;BME280;2902;42.130;24.732;2023-06-10T09:36:53;98885.91;;;32.11;34.84
5755;BME280;2902;42.130;24.732;2023-06-10T09:39:22;98882.69;;;32.09;35.34
5755;BME280;2902;42.130;24.732;2023-06-10T09:41:49;98885.03;;;31.80;36.77
5755;BME280;2902;42.130;24.732;2023-06-10T09:44:17;98881.25;;;31.72;36.36
5755;BME280;2902;42.130;24.732;2023-06-10T09:46:46;98883.22;;;31.72;37.56
5755;BME280;2902;42.130;24.732;2023-06-10T09:49:13;98869.34;;;31.80;39.08
5755;BME280;2902;42.130;24.732;2023-06-10T09:51:49;98884.94;;;31.25;40.23
5755;BME280;2902;42.130;24.732;2023-06-10T09:54:16;98887.41;;;31.18;41.04
5755;BME280;2902;42.130;24.732;2023-06-10T09:56:47;98880.56;;;31.12;40.79
5755;BME280;2902;42.130;24.732;2023-06-10T09:59:13;98880.66;;;31.15;41.28
5755;BME280;2902;42.130;24.732;2023-06-10T10:01:41;98876.34;;;31.02;41.08
5755;BME280;2902;42.130;24.732;2023-06-10T10:04:08;98885.06;;;31.04;41.06
5755;BME280;2902;42.130;24.732;2023-06-10T10:06:35;98885.47;;;31.18;39.93
5755;BME280;2902;42.130;24.732;2023-06-10T10:09:02;98886.47;;;31.50;39.50
5755;BME280;2902;42.130;24.732;2023-06-10T10:11:32;98881.34;;;31.36;39.42
5755;BME280;2902;42.130;24.732;2023-06-10T10:14:03;98879.88;;;31.39;39.93
5755;BME280;2902;42.130;24.732;2023-06-10T10:16:36;98889.13;;;31.46;39.42
5755;BME280;2902;42.130;24.732;2023-06-10T10:19:08;98877.75;;;31.60;38.78
5755;BME280;2902;42.130;24.732;2023-06-10T10:21:41;98880.78;;;31.82;38.32
5755;BME280;2902;42.130;24.732;2023-06-10T10:24:14;98889.94;;;31.86;37.87
5755;BME280;2902;42.130;24.732;2023-06-10T10:26:42;98875.81;;;31.88;37.78
5755;BME280;2902;42.130;24.732;2023-06-10T10:29:16;98876.81;;;31.68;37.59
5755;BME280;2902;42.130;24.732;2023-06-10T10:31:49;98863.97;;;31.72;37.84
5755;BME280;2902;42.130;24.732;2023-06-10T10:34:21;98878.09;;;31.58;37.81
5755;BME280;2902;42.130;24.732;2023-06-10T10:36:48;98877.47;;;31.37;39.70
5755;BME280;2902;42.130;24.732;2023-06-10T10:39:15;98878.50;;;31.33;38.68
5755;BME280;2902;42.130;24.732;2023-06-10T10:41:43;98874.94;;;31.20;40.13
5755;BME280;2902;42.130;24.732;2023-06-10T10:44:12;98868.09;;;31.14;39.72
5755;BME280;2902;42.130;24.732;2023-06-10T10:46:42;98865.63;;;30.85;39.47
5755;BME280;2902;42.130;24.732;2023-06-10T10:49:09;98877.94;;;31.03;39.78
5755;BME280;2902;42.130;24.732;2023-06-10T10:51:36;98876.81;;;31.16;38.45
5755;BME280;2902;42.130;24.732;2023-06-10T10:54:10;98870.16;;;31.29;38.21
5755;BME280;2902;42.130;24.732;2023-06-10T10:56:37;98873.13;;;31.24;37.97
5755;BME280;2902;42.130;24.732;2023-06-10T10:59:03;98874.06;;;31.04;37.73
5755;BME280;2902;42.130;24.732;2023-06-10T11:01:41;98862.19;;;30.88;37.99
5755;BME280;2902;42.130;24.732;2023-06-10T11:04:11;98865.84;;;30.92;37.67
5755;BME280;2902;42.130;24.732;2023-06-10T11:06:38;98864.19;;;31.15;38.33
5755;BME280;2902;42.130;24.732;2023-06-10T11:09:26;98860.91;;;30.98;38.19
5755;BME280;2902;42.130;24.732;2023-06-10T11:11:56;98862.06;;;30.97;38.33
5755;BME280;2902;42.130;24.732;2023-06-10T11:14:26;98848.47;;;30.76;38.86
5755;BME280;2902;42.130;24.732;2023-06-10T11:16:56;98853.97;;;30.76;38.91
5755;BME280;2902;42.130;24.732;2023-06-10T11:19:43;98848.47;;;30.88;38.83
5755;BME280;2902;42.130;24.732;2023-06-10T11:22:16;98845.28;;;30.74;40.43
5755;BME280;2902;42.130;24.732;2023-06-10T11:24:47;98845.84;;;30.92;39.29
5755;BME280;2902;42.130;24.732;2023-06-10T11:27:15;98841.16;;;30.80;38.94
5755;BME280;2902;42.130;24.732;2023-06-10T11:29:55;98851.09;;;30.97;38.00
5755;BME280;2902;42.130;24.732;2023-06-10T11:32:25;98843.44;;;30.78;37.99
5755;BME280;2902;42.130;24.732;2023-06-10T11:34:55;98850.28;;;30.48;38.16
5755;BME280;2902;42.130;24.732;2023-06-10T11:37:22;98847.50;;;30.36;39.28
5755;BME280;2902;42.130;24.732;2023-06-10T11:39:52;98838.84;;;30.58;38.27
5755;BME280;2902;42.130;24.732;2023-06-10T11:42:19;98834.97;;;30.59;38.16
5755;BME280;2902;42.130;24.732;2023-06-10T11:44:49;98830.88;;;30.77;37.97
5755;BME280;2902;42.130;24.732;2023-06-10T11:47:16;98830.06;;;30.89;37.99
5755;BME280;2902;42.130;24.732;2023-06-10T11:49:45;98833.63;;;30.89;37.22
5755;BME280;2902;42.130;24.732;2023-06-10T11:52:12;98824.69;;;31.04;37.34
5755;BME280;2902;42.130;24.732;2023-06-10T11:54:39;98822.38;;;31.06;36.93
5755;BME280;2902;42.130;24.732;2023-06-10T11:57:05;98819.38;;;31.23;37.02
5755;BME280;2902;42.130;24.732;2023-06-10T11:59:34;98828.44;;;31.51;36.68
5755;BME280;2902;42.130;24.732;2023-06-10T12:02:00;98812.88;;;31.55;35.98
5755;BME280;2902;42.130;24.732;2023-06-10T12:04:27;98817.06;;;31.65;35.64
5755;BME280;2902;42.130;24.732;2023-06-10T12:06:55;98820.38;;;31.70;35.89
5755;BME280;2902;42.130;24.732;2023-06-10T12:09:23;98823.56;;;31.45;36.38
5755;BME280;2902;42.130;24.732;2023-06-10T12:11:52;98811.75;;;31.44;36.83
5755;BME280;2902;42.130;24.732;2023-06-10T12:14:50;98813.25;;;31.42;36.75
5755;BME280;2902;42.130;24.732;2023-06-10T12:17:19;98802.09;;;31.35;36.93
5755;BME280;2902;42.130;24.732;2023-06-10T12:19:47;98808.88;;;31.53;36.84
5755;BME280;2902;42.130;24.732;2023-06-10T12:22:15;98801.19;;;31.58;37.83
5755;BME280;2902;42.130;24.732;2023-06-10T12:24:45;98795.28;;;31.44;39.03
5755;BME280;2902;42.130;24.732;2023-06-10T12:27:12;98791.09;;;30.83;40.65
5755;BME280;2902;42.130;24.732;2023-06-10T12:29:39;98789.63;;;30.38;42.64
5755;BME280;2902;42.130;24.732;2023-06-10T12:32:07;98782.63;;;30.28;42.81
5755;BME280;2902;42.130;24.732;2023-06-10T12:34:36;98784.72;;;30.55;42.45
5755;BME280;2902;42.130;24.732;2023-06-10T12:37:04;98786.41;;;30.72;41.06
5755;BME280;2902;42.130;24.732;2023-06-10T12:39:33;98779.69;;;30.81;40.62
5755;BME280;2902;42.130;24.732;2023-06-10T12:42:01;98775.34;;;30.44;41.51
5755;BME280;2902;42.130;24.732;2023-06-10T12:44:29;98781.25;;;30.46;41.84
5755;BME280;2902;42.130;24.732;2023-06-10T12:46:56;98781.50;;;30.53;40.00
5755;BME280;2902;42.130;24.732;2023-06-10T12:49:23;98773.50;;;30.48;39.44
5755;BME280;2902;42.130;24.732;2023-06-10T12:51:51;98772.13;;;30.54;40.70
5755;BME280;2902;42.130;24.732;2023-06-10T12:54:18;98762.19;;;30.50;40.70
5755;BME280;2902;42.130;24.732;2023-06-10T12:56:46;98762.28;;;30.65;39.61
5755;BME280;2902;42.130;24.732;2023-06-10T12:59:13;98770.53;;;30.53;39.32
5755;BME280;2902;42.130;24.732;2023-06-10T13:01:40;98762.78;;;30.43;40.09
5755;BME280;2902;42.130;24.732;2023-06-10T13:04:06;98764.59;;;30.51;40.12
5755;BME280;2902;42.130;24.732;2023-06-10T13:06:33;98762.66;;;30.28;39.46
5755;BME280;2902;42.130;24.732;2023-06-10T13:09:05;98763.13;;;30.54;39.73
5755;BME280;2902;42.130;24.732;2023-06-10T13:11:32;98761.28;;;30.58;39.63
5755;BME280;2902;42.130;24.732;2023-06-10T13:14:00;98760.78;;;30.68;39.62